sensor_id;sensor_type;location;lat;lon;timestamp;P1;durP1;ratioP1;P2;durP2;ratioP2
286;SDS011;127;48.770;9.212;2022-09-03T00:01:34;4.37;;;2.40;;
286;SDS011;127;48.770;9.212;2022-09-03T00:04:15;5.00;;;2.50;;
286;SDS011;127;48.770;9.212;2022-09-03T00:07:01;4.97;;;2.40;;
286;SDS011;127;48.770;9.212;2022-09-03T00:09:38;11.87;;;2.60;;
286;SDS011;127;48.770;9.212;2022-09-03T00:12:12;7.63;;;3.00;;
286;SDS011;127;48.770;9.212;2022-09-03T00:14:48;7.70;;;2.50;;
286;SDS011;127;48.770;9.212;2022-09-03T00:20:09;5.03;;;2.37;;
286;SDS011;127;48.770;9.212;2022-09-03T00:22:45;2.50;;;2.40;;
286;SDS011;127;48.770;9.212;2022-09-03T00:25:20;3.43;;;2.13;;
286;SDS011;127;48.770;9.212;2022-09-03T00:27:53;5.53;;;2.53;;
286;SDS011;127;48.770;9.212;2022-09-03T00:30:24;5.30;;;2.50;;
286;SDS011;127;48.770;9.212;2022-09-03T00:32:54;4.67;;;2.30;;
286;SDS011;127;48.770;9.212;2022-09-03T00:35:31;2.90;;;2.37;;
286;SDS011;127;48.770;9.212;2022-09-03T00:38:03;3.63;;;2.60;;
286;SDS011;127;48.770;9.212;2022-09-03T00:40:44;3.47;;;2.40;;
286;SDS011;127;48.770;9.212;2022-09-03T00:43:26;3.70;;;2.00;;
286;SDS011;127;48.770;9.212;2022-09-03T00:46:10;4.53;;;2.77;;
286;SDS011;127;48.770;9.212;2022-09-03T00:48:54;5.43;;;2.50;;
286;SDS011;127;48.770;9.212;2022-09-03T00:51:39;4.87;;;2.17;;
286;SDS011;127;48.770;9.212;2022-09-03T00:54:14;3.20;;;2.60;;
286;SDS011;127;48.770;9.212;2022-09-03T00:56:59;3.90;;;2.17;;
286;SDS011;127;48.770;9.212;2022-09-03T00:59:38;3.50;;;2.23;;
286;SDS011;127;48.770;9.212;2022-09-03T01:02:20;2.70;;;2.50;;
286;SDS011;127;48.770;9.212;2022-09-03T01:04:58;3.73;;;2.10;;
286;SDS011;127;48.770;9.212;2022-09-03T01:07:34;2.87;;;2.00;;
286;SDS011;127;48.770;9.212;2022-09-03T01:10:13;6.03;;;2.60;;
286;SDS011;127;48.770;9.212;2022-09-03T01:12:55;2.70;;;2.27;;
286;SDS011;127;48.770;9.212;2022-09-03T01:15:38;3.80;;;2.73;;
286;SDS011;127;48.770;9.212;2022-09-03T01:18:19;3.40;;;2.20;;
286;SDS011;127;48.770;9.212;2022-09-03T01:21:02;1.73;;;1.70;;
286;SDS011;127;48.770;9.212;2022-09-03T01:24:02;4.50;;;2.17;;
286;SDS011;127;48.770;9.212;2022-09-03T01:27:02;6.00;;;2.43;;
286;SDS011;127;48.770;9.212;2022-09-03T01:29:46;7.50;;;2.50;;
286;SDS011;127;48.770;9.212;2022-09-03T01:32:23;3.23;;;2.03;;
286;SDS011;127;48.770;9.212;2022-09-03T01:35:03;2.37;;;2.00;;
286;SDS011;127;48.770;9.212;2022-09-03T01:37:43;3.63;;;2.50;;
286;SDS011;127;48.770;9.212;2022-09-03T01:40:26;5.43;;;1.90;;
286;SDS011;127;48.770;9.212;2022-09-03T01:43:09;5.53;;;2.30;;
286;SDS011;127;48.770;9.212;2022-09-03T01:45:53;6.73;;;1.90;;
286;SDS011;127;48.770;9.212;2022-09-03T01:48:28;6.57;;;2.10;;
286;SDS011;127;48.770;9.212;2022-09-03T01:51:16;3.10;;;2.40;;
286;SDS011;127;48.770;9.212;2022-09-03T01:57:03;5.77;;;2.33;;
286;SDS011;127;48.770;9.212;2022-09-03T01:59:45;4.30;;;2.23;;
286;SDS011;127;48.770;9.212;2022-09-03T02:02:22;2.47;;;2.10;;
286;SDS011;127;48.770;9.212;2022-09-03T02:04:57;5.20;;;2.50;;
286;SDS011;127;48.770;9.212;2022-09-03T02:07:34;4.20;;;2.50;;
286;SDS011;127;48.770;9.212;2022-09-03T02:10:05;4.10;;;2.27;;
286;SDS011;127;48.770;9.212;2022-09-03T02:12:35;3.20;;;1.90;;
286;SDS011;127;48.770;9.212;2022-09-03T02:15:09;3.80;;;2.30;;
286;SDS011;127;48.770;9.212;2022-09-03T02:17:43;7.17;;;2.50;;
286;SDS011;127;48.770;9.212;2022-09-03T02:20:15;5.50;;;1.90;;
286;SDS011;127;48.770;9.212;2022-09-03T02:22:47;6.67;;;2.47;;
286;SDS011;127;48.770;9.212;2022-09-03T02:25:18;2.70;;;2.00;;
286;SDS011;127;48.770;9.212;2022-09-03T02:27:50;6.00;;;2.20;;
286;SDS011;127;48.770;9.212;2022-09-03T02:30:20;3.07;;;2.30;;
286;SDS011;127;48.770;9.212;2022-09-03T02:32:52;4.03;;;1.80;;
286;SDS011;127;48.770;9.212;2022-09-03T02:35:21;6.60;;;2.57;;
286;SDS011;127;48.770;9.212;2022-09-03T02:37:49;3.93;;;2.80;;
286;SDS011;127;48.770;9.212;2022-09-03T02:40:18;3.60;;;2.23;;
286;SDS011;127;48.770;9.212;2022-09-03T02:42:47;7.50;;;2.53;;
286;SDS011;127;48.770;9.212;2022-09-03T02:45:19;4.50;;;2.40;;
286;SDS011;127;48.770;9.212;2022-09-03T02:47:58;2.50;;;2.33;;
286;SDS011;127;48.770;9.212;2022-09-03T02:50:38;5.57;;;2.67;;
286;SDS011;127;48.770;9.212;2022-09-03T02:53:08;6.83;;;2.80;;
286;SDS011;127;48.770;9.212;2022-09-03T02:55:36;4.30;;;2.57;;
286;SDS011;127;48.770;9.212;2022-09-03T02:58:05;6.20;;;2.20;;
286;SDS011;127;48.770;9.212;2022-09-03T03:00:37;2.63;;;2.30;;
286;SDS011;127;48.770;9.212;2022-09-03T03:03:08;2.80;;;2.30;;
286;SDS011;127;48.770;9.212;2022-09-03T03:05:41;6.30;;;2.80;;
286;SDS011;127;48.770;9.212;2022-09-03T03:08:12;2.40;;;2.20;;
286;SDS011;127;48.770;9.212;2022-09-03T03:10:45;5.13;;;2.60;;
286;SDS011;127;48.770;9.212;2022-09-03T03:13:16;5.70;;;2.47;;
286;SDS011;127;48.770;9.212;2022-09-03T03:15:48;3.83;;;2.40;;
286;SDS011;127;48.770;9.212;2022-09-03T03:18:22;4.33;;;2.53;;
286;SDS011;127;48.770;9.212;2022-09-03T03:20:51;2.60;;;2.33;;
286;SDS011;127;48.770;9.212;2022-09-03T03:23:25;4.93;;;2.40;;
286;SDS011;127;48.770;9.212;2022-09-03T03:25:59;5.13;;;2.20;;
286;SDS011;127;48.770;9.212;2022-09-03T03:28:28;3.80;;;2.50;;
286;SDS011;127;48.770;9.212;2022-09-03T03:31:03;7.00;;;2.87;;
286;SDS011;127;48.770;9.212;2022-09-03T03:33:35;5.17;;;2.50;;
286;SDS011;127;48.770;9.212;2022-09-03T03:36:05;3.10;;;2.37;;
286;SDS011;127;48.770;9.212;2022-09-03T03:38:35;2.80;;;2.60;;
286;SDS011;127;48.770;9.212;2022-09-03T03:41:07;3.63;;;2.03;;
286;SDS011;127;48.770;9.212;2022-09-03T03:43:38;4.17;;;3.00;;
286;SDS011;127;48.770;9.212;2022-09-03T03:46:07;4.20;;;3.00;;
286;SDS011;127;48.770;9.212;2022-09-03T03:48:39;4.00;;;2.33;;
286;SDS011;127;48.770;9.212;2022-09-03T03:51:08;6.40;;;2.90;;
286;SDS011;127;48.770;9.212;2022-09-03T03:53:37;7.37;;;3.50;;
286;SDS011;127;48.770;9.212;2022-09-03T03:56:07;9.77;;;2.90;;
286;SDS011;127;48.770;9.212;2022-09-03T03:58:39;4.23;;;3.00;;
286;SDS011;127;48.770;9.212;2022-09-03T04:01:10;5.63;;;2.70;;
286;SDS011;127;48.770;9.212;2022-09-03T04:03:44;3.80;;;2.57;;
286;SDS011;127;48.770;9.212;2022-09-03T04:06:14;2.67;;;2.50;;
286;SDS011;127;48.770;9.212;2022-09-03T04:08:45;2.80;;;2.60;;
286;SDS011;127;48.770;9.212;2022-09-03T04:11:16;3.67;;;2.60;;
286;SDS011;127;48.770;9.212;2022-09-03T04:13:48;4.50;;;3.20;;
286;SDS011;127;48.770;9.212;2022-09-03T04:16:18;5.00;;;2.80;;
286;SDS011;127;48.770;9.212;2022-09-03T04:18:50;9.73;;;2.83;;
286;SDS011;127;48.770;9.212;2022-09-03T04:21:23;5.00;;;2.80;;
286;SDS011;127;48.770;9.212;2022-09-03T04:23:53;4.93;;;2.70;;
286;SDS011;127;48.770;9.212;2022-09-03T04:26:23;20.63;;;3.43;;
286;SDS011;127;48.770;9.212;2022-09-03T04:28:55;7.13;;;3.60;;
286;SDS011;127;48.770;9.212;2022-09-03T04:31:25;4.23;;;2.40;;
286;SDS011;127;48.770;9.212;2022-09-03T04:33:56;5.80;;;3.00;;
286;SDS011;127;48.770;9.212;2022-09-03T04:36:26;4.67;;;3.10;;
286;SDS011;127;48.770;9.212;2022-09-03T04:38:57;5.67;;;3.00;;
286;SDS011;127;48.770;9.212;2022-09-03T04:41:27;5.07;;;2.80;;
286;SDS011;127;48.770;9.212;2022-09-03T04:43:57;6.53;;;2.93;;
286;SDS011;127;48.770;9.212;2022-09-03T04:46:29;4.83;;;2.93;;
286;SDS011;127;48.770;9.212;2022-09-03T04:49:04;4.10;;;2.87;;
286;SDS011;127;48.770;9.212;2022-09-03T04:51:36;4.30;;;2.80;;
286;SDS011;127;48.770;9.212;2022-09-03T04:54:06;5.90;;;3.13;;
286;SDS011;127;48.770;9.212;2022-09-03T04:56:37;3.83;;;2.80;;
286;SDS011;127;48.770;9.212;2022-09-03T04:59:07;4.67;;;2.60;;
286;SDS011;127;48.770;9.212;2022-09-03T05:01:38;3.30;;;2.60;;
286;SDS011;127;48.770;9.212;2022-09-03T05:04:10;3.90;;;2.73;;
286;SDS011;127;48.770;9.212;2022-09-03T05:06:38;6.70;;;3.40;;
286;SDS011;127;48.770;9.212;2022-09-03T05:09:09;5.80;;;3.00;;
286;SDS011;127;48.770;9.212;2022-09-03T05:11:38;4.00;;;3.00;;
286;SDS011;127;48.770;9.212;2022-09-03T05:14:07;6.63;;;2.93;;
286;SDS011;127;48.770;9.212;2022-09-03T05:16:36;4.20;;;2.67;;
286;SDS011;127;48.770;9.212;2022-09-03T05:19:10;6.07;;;2.77;;
286;SDS011;127;48.770;9.212;2022-09-03T05:21:39;5.37;;;3.30;;
286;SDS011;127;48.770;9.212;2022-09-03T05:24:08;4.07;;;3.10;;
286;SDS011;127;48.770;9.212;2022-09-03T05:26:42;7.30;;;3.47;;
286;SDS011;127;48.770;9.212;2022-09-03T05:29:12;5.60;;;3.40;;
286;SDS011;127;48.770;9.212;2022-09-03T05:31:43;6.17;;;3.50;;
286;SDS011;127;48.770;9.212;2022-09-03T05:34:15;3.80;;;3.20;;
286;SDS011;127;48.770;9.212;2022-09-03T05:36:43;6.03;;;2.70;;
286;SDS011;127;48.770;9.212;2022-09-03T05:39:14;2.87;;;2.70;;
286;SDS011;127;48.770;9.212;2022-09-03T05:41:43;6.00;;;3.00;;
286;SDS011;127;48.770;9.212;2022-09-03T05:44:14;3.67;;;3.40;;
286;SDS011;127;48.770;9.212;2022-09-03T05:46:45;6.40;;;3.43;;
286;SDS011;127;48.770;9.212;2022-09-03T05:49:20;4.13;;;2.70;;
286;SDS011;127;48.770;9.212;2022-09-03T05:51:51;3.67;;;3.00;;
286;SDS011;127;48.770;9.212;2022-09-03T05:54:19;8.50;;;2.93;;
286;SDS011;127;48.770;9.212;2022-09-03T05:56:48;3.73;;;2.87;;
286;SDS011;127;48.770;9.212;2022-09-03T05:59:17;2.90;;;2.40;;
286;SDS011;127;48.770;9.212;2022-09-03T06:01:49;8.50;;;3.33;;
286;SDS011;127;48.770;9.212;2022-09-03T06:04:26;4.20;;;3.10;;
286;SDS011;127;48.770;9.212;2022-09-03T06:06:55;4.03;;;2.90;;
286;SDS011;127;48.770;9.212;2022-09-03T06:09:24;3.07;;;2.87;;
286;SDS011;127;48.770;9.212;2022-09-03T06:11:52;4.03;;;2.87;;
286;SDS011;127;48.770;9.212;2022-09-03T06:14:23;7.73;;;3.37;;
286;SDS011;127;48.770;9.212;2022-09-03T06:16:52;14.53;;;3.20;;
286;SDS011;127;48.770;9.212;2022-09-03T06:19:21;5.53;;;3.50;;
286;SDS011;127;48.770;9.212;2022-09-03T06:21:52;3.60;;;2.70;;
286;SDS011;127;48.770;9.212;2022-09-03T06:24:22;5.37;;;2.87;;
286;SDS011;127;48.770;9.212;2022-09-03T06:26:51;5.20;;;2.77;;
286;SDS011;127;48.770;9.212;2022-09-03T06:29:20;3.57;;;2.93;;
286;SDS011;127;48.770;9.212;2022-09-03T06:31:49;4.90;;;3.07;;
286;SDS011;127;48.770;9.212;2022-09-03T06:34:18;4.03;;;3.00;;
286;SDS011;127;48.770;9.212;2022-09-03T06:36:49;4.47;;;3.17;;
286;SDS011;127;48.770;9.212;2022-09-03T06:39:23;9.03;;;3.40;;
286;SDS011;127;48.770;9.212;2022-09-03T06:41:52;4.33;;;3.10;;
286;SDS011;127;48.770;9.212;2022-09-03T06:44:20;4.70;;;3.43;;
286;SDS011;127;48.770;9.212;2022-09-03T06:46:49;4.97;;;3.70;;
286;SDS011;127;48.770;9.212;2022-09-03T06:49:18;8.90;;;3.63;;
286;SDS011;127;48.770;9.212;2022-09-03T06:51:49;5.37;;;3.90;;
286;SDS011;127;48.770;9.212;2022-09-03T06:54:21;4.50;;;3.50;;
286;SDS011;127;48.770;9.212;2022-09-03T06:56:50;5.40;;;3.57;;
286;SDS011;127;48.770;9.212;2022-09-03T06:59:22;6.00;;;3.37;;
286;SDS011;127;48.770;9.212;2022-09-03T07:01:56;3.33;;;3.17;;
286;SDS011;127;48.770;9.212;2022-09-03T07:04:27;5.10;;;3.70;;
286;SDS011;127;48.770;9.212;2022-09-03T07:06:58;6.40;;;3.73;;
286;SDS011;127;48.770;9.212;2022-09-03T07:09:27;6.50;;;3.37;;
286;SDS011;127;48.770;9.212;2022-09-03T07:15:29;5.07;;;3.10;;
286;SDS011;127;48.770;9.212;2022-09-03T07:17:57;4.60;;;3.77;;
286;SDS011;127;48.770;9.212;2022-09-03T07:20:26;3.83;;;3.10;;
286;SDS011;127;48.770;9.212;2022-09-03T07:22:58;4.43;;;3.70;;
286;SDS011;127;48.770;9.212;2022-09-03T07:25:27;3.40;;;2.90;;
286;SDS011;127;48.770;9.212;2022-09-03T07:28:04;7.13;;;3.40;;
286;SDS011;127;48.770;9.212;2022-09-03T07:30:34;4.17;;;3.43;;
286;SDS011;127;48.770;9.212;2022-09-03T07:33:03;8.80;;;4.13;;
286;SDS011;127;48.770;9.212;2022-09-03T07:35:36;5.27;;;3.47;;
286;SDS011;127;48.770;9.212;2022-09-03T07:38:09;9.23;;;3.20;;
286;SDS011;127;48.770;9.212;2022-09-03T07:40:45;4.70;;;3.67;;
286;SDS011;127;48.770;9.212;2022-09-03T07:43:17;4.00;;;3.10;;
286;SDS011;127;48.770;9.212;2022-09-03T07:45:49;4.40;;;3.20;;
286;SDS011;127;48.770;9.212;2022-09-03T07:48:19;8.43;;;4.10;;
286;SDS011;127;48.770;9.212;2022-09-03T07:50:50;6.33;;;4.03;;
286;SDS011;127;48.770;9.212;2022-09-03T07:53:21;7.30;;;3.90;;
286;SDS011;127;48.770;9.212;2022-09-03T07:55:50;10.80;;;4.60;;
286;SDS011;127;48.770;9.212;2022-09-03T07:58:18;5.90;;;4.07;;
286;SDS011;127;48.770;9.212;2022-09-03T08:00:48;6.97;;;3.80;;
286;SDS011;127;48.770;9.212;2022-09-03T08:03:24;9.10;;;4.30;;
286;SDS011;127;48.770;9.212;2022-09-03T08:05:52;5.00;;;4.13;;
286;SDS011;127;48.770;9.212;2022-09-03T08:08:24;6.73;;;4.57;;
286;SDS011;127;48.770;9.212;2022-09-03T08:10:53;5.70;;;3.33;;
286;SDS011;127;48.770;9.212;2022-09-03T08:13:32;4.73;;;3.77;;
286;SDS011;127;48.770;9.212;2022-09-03T08:16:01;5.47;;;3.80;;
286;SDS011;127;48.770;9.212;2022-09-03T08:18:31;4.80;;;4.27;;
286;SDS011;127;48.770;9.212;2022-09-03T08:21:01;5.40;;;3.87;;
286;SDS011;127;48.770;9.212;2022-09-03T08:23:35;5.13;;;3.23;;
286;SDS011;127;48.770;9.212;2022-09-03T08:26:04;4.17;;;3.80;;
286;SDS011;127;48.770;9.212;2022-09-03T08:28:34;6.10;;;3.80;;
286;SDS011;127;48.770;9.212;2022-09-03T08:31:04;3.93;;;3.67;;
286;SDS011;127;48.770;9.212;2022-09-03T08:35:12;6.33;;;4.20;;
286;SDS011;127;48.770;9.212;2022-09-03T08:37:05;4.90;;;3.90;;
286;SDS011;127;48.770;9.212;2022-09-03T08:39:54;4.50;;;3.63;;
286;SDS011;127;48.770;9.212;2022-09-03T08:42:48;4.23;;;3.70;;
286;SDS011;127;48.770;9.212;2022-09-03T08:45:33;5.43;;;4.10;;
286;SDS011;127;48.770;9.212;2022-09-03T08:48:11;8.07;;;4.23;;
286;SDS011;127;48.770;9.212;2022-09-03T08:50:52;6.37;;;4.50;;
286;SDS011;127;48.770;9.212;2022-09-03T08:53:51;5.40;;;4.10;;
286;SDS011;127;48.770;9.212;2022-09-03T08:56:32;6.87;;;4.43;;
286;SDS011;127;48.770;9.212;2022-09-03T08:59:15;5.90;;;3.80;;
286;SDS011;127;48.770;9.212;2022-09-03T09:01:54;6.73;;;4.13;;
286;SDS011;127;48.770;9.212;2022-09-03T09:04:42;3.73;;;3.37;;
286;SDS011;127;48.770;9.212;2022-09-03T09:07:34;5.20;;;4.00;;
286;SDS011;127;48.770;9.212;2022-09-03T09:10:36;6.63;;;4.00;;
286;SDS011;127;48.770;9.212;2022-09-03T09:13:37;7.00;;;4.30;;
286;SDS011;127;48.770;9.212;2022-09-03T09:16:32;4.87;;;4.07;;
286;SDS011;127;48.770;9.212;2022-09-03T09:22:32;5.40;;;3.70;;
286;SDS011;127;48.770;9.212;2022-09-03T09:25:23;6.00;;;4.10;;
286;SDS011;127;48.770;9.212;2022-09-03T09:28:11;5.33;;;3.87;;
286;SDS011;127;48.770;9.212;2022-09-03T09:31:03;5.93;;;4.00;;
286;SDS011;127;48.770;9.212;2022-09-03T09:33:46;4.83;;;3.63;;
286;SDS011;127;48.770;9.212;2022-09-03T09:36:21;5.50;;;3.87;;
286;SDS011;127;48.770;9.212;2022-09-03T09:39:28;6.40;;;4.07;;
286;SDS011;127;48.770;9.212;2022-09-03T09:42:20;7.37;;;3.90;;
286;SDS011;127;48.770;9.212;2022-09-03T09:44:55;5.20;;;4.17;;
286;SDS011;127;48.770;9.212;2022-09-03T09:47:41;5.10;;;3.70;;
286;SDS011;127;48.770;9.212;2022-09-03T09:50:24;5.73;;;3.87;;
286;SDS011;127;48.770;9.212;2022-09-03T09:53:08;5.40;;;4.30;;
286;SDS011;127;48.770;9.212;2022-09-03T09:55:59;5.20;;;4.10;;
286;SDS011;127;48.770;9.212;2022-09-03T09:58:40;6.20;;;4.50;;
286;SDS011;127;48.770;9.212;2022-09-03T10:01:19;5.50;;;4.63;;
286;SDS011;127;48.770;9.212;2022-09-03T10:04:07;12.50;;;4.83;;
286;SDS011;127;48.770;9.212;2022-09-03T10:06:43;6.23;;;4.23;;
286;SDS011;127;48.770;9.212;2022-09-03T10:09:24;9.70;;;5.23;;
286;SDS011;127;48.770;9.212;2022-09-03T10:12:08;10.23;;;4.73;;
286;SDS011;127;48.770;9.212;2022-09-03T10:14:51;4.63;;;3.83;;
286;SDS011;127;48.770;9.212;2022-09-03T10:17:30;7.20;;;4.93;;
286;SDS011;127;48.770;9.212;2022-09-03T10:20:18;5.20;;;4.67;;
286;SDS011;127;48.770;9.212;2022-09-03T10:22:58;9.90;;;4.53;;
286;SDS011;127;48.770;9.212;2022-09-03T10:25:37;6.23;;;4.17;;
286;SDS011;127;48.770;9.212;2022-09-03T10:28:17;8.97;;;6.20;;
286;SDS011;127;48.770;9.212;2022-09-03T10:31:11;5.30;;;4.63;;
286;SDS011;127;48.770;9.212;2022-09-03T10:34:07;9.43;;;5.53;;
286;SDS011;127;48.770;9.212;2022-09-03T10:36:52;6.50;;;4.63;;
286;SDS011;127;48.770;9.212;2022-09-03T10:39:42;5.80;;;4.57;;
286;SDS011;127;48.770;9.212;2022-09-03T10:42:39;8.83;;;4.90;;
286;SDS011;127;48.770;9.212;2022-09-03T10:45:22;8.70;;;5.00;;
286;SDS011;127;48.770;9.212;2022-09-03T10:48:10;5.47;;;4.53;;
286;SDS011;127;48.770;9.212;2022-09-03T10:50:57;5.47;;;4.10;;
286;SDS011;127;48.770;9.212;2022-09-03T10:53:41;14.50;;;4.60;;
286;SDS011;127;48.770;9.212;2022-09-03T10:56:38;6.80;;;4.50;;
286;SDS011;127;48.770;9.212;2022-09-03T10:59:30;5.73;;;4.10;;
286;SDS011;127;48.770;9.212;2022-09-03T11:02:17;7.73;;;4.53;;
286;SDS011;127;48.770;9.212;2022-09-03T11:05:01;6.40;;;4.20;;
286;SDS011;127;48.770;9.212;2022-09-03T11:07:38;6.23;;;4.43;;
286;SDS011;127;48.770;9.212;2022-09-03T11:10:18;5.37;;;4.07;;
286;SDS011;127;48.770;9.212;2022-09-03T11:13:03;7.13;;;5.03;;
286;SDS011;127;48.770;9.212;2022-09-03T11:15:41;8.63;;;4.40;;
286;SDS011;127;48.770;9.212;2022-09-03T11:18:21;10.10;;;4.60;;
286;SDS011;127;48.770;9.212;2022-09-03T11:21:05;5.40;;;4.80;;
286;SDS011;127;48.770;9.212;2022-09-03T11:23:42;8.37;;;5.10;;
286;SDS011;127;48.770;9.212;2022-09-03T11:26:20;7.30;;;4.80;;
286;SDS011;127;48.770;9.212;2022-09-03T11:28:57;7.37;;;4.43;;
286;SDS011;127;48.770;9.212;2022-09-03T11:31:52;12.10;;;4.23;;
286;SDS011;127;48.770;9.212;2022-09-03T11:34:30;7.50;;;4.60;;
286;SDS011;127;48.770;9.212;2022-09-03T11:37:17;7.63;;;4.60;;
286;SDS011;127;48.770;9.212;2022-09-03T11:39:54;6.93;;;4.50;;
286;SDS011;127;48.770;9.212;2022-09-03T11:42:37;8.47;;;4.97;;
286;SDS011;127;48.770;9.212;2022-09-03T11:45:21;8.70;;;4.60;;
286;SDS011;127;48.770;9.212;2022-09-03T11:51:19;5.63;;;4.23;;
286;SDS011;127;48.770;9.212;2022-09-03T11:54:04;11.17;;;4.73;;
286;SDS011;127;48.770;9.212;2022-09-03T11:57:03;7.40;;;4.87;;
286;SDS011;127;48.770;9.212;2022-09-03T11:59:54;5.90;;;4.33;;
286;SDS011;127;48.770;9.212;2022-09-03T12:02:41;8.10;;;5.13;;
286;SDS011;127;48.770;9.212;2022-09-03T12:05:21;14.43;;;4.80;;
286;SDS011;127;48.770;9.212;2022-09-03T12:08:07;10.07;;;4.87;;
286;SDS011;127;48.770;9.212;2022-09-03T12:11:08;7.63;;;4.63;;
286;SDS011;127;48.770;9.212;2022-09-03T12:14:02;7.17;;;4.57;;
286;SDS011;127;48.770;9.212;2022-09-03T12:16:54;7.67;;;4.73;;
286;SDS011;127;48.770;9.212;2022-09-03T12:19:44;7.13;;;5.20;;
286;SDS011;127;48.770;9.212;2022-09-03T12:22:19;6.97;;;4.23;;
286;SDS011;127;48.770;9.212;2022-09-03T12:24:49;6.57;;;5.03;;
286;SDS011;127;48.770;9.212;2022-09-03T12:27:19;11.47;;;4.73;;
286;SDS011;127;48.770;9.212;2022-09-03T12:29:50;11.20;;;4.93;;
286;SDS011;127;48.770;9.212;2022-09-03T12:32:27;7.90;;;5.03;;
286;SDS011;127;48.770;9.212;2022-09-03T12:35:10;6.40;;;4.97;;
286;SDS011;127;48.770;9.212;2022-09-03T12:37:42;6.80;;;5.00;;
286;SDS011;127;48.770;9.212;2022-09-03T12:40:17;6.43;;;3.50;;
286;SDS011;127;48.770;9.212;2022-09-03T12:42:50;6.83;;;3.30;;
286;SDS011;127;48.770;9.212;2022-09-03T12:45:21;9.40;;;3.70;;
286;SDS011;127;48.770;9.212;2022-09-03T12:47:54;3.67;;;3.43;;
286;SDS011;127;48.770;9.212;2022-09-03T12:50:23;7.10;;;3.37;;
286;SDS011;127;48.770;9.212;2022-09-03T12:52:53;5.57;;;3.47;;
286;SDS011;127;48.770;9.212;2022-09-03T12:55:25;6.93;;;3.73;;
286;SDS011;127;48.770;9.212;2022-09-03T12:57:59;6.10;;;3.23;;
286;SDS011;127;48.770;9.212;2022-09-03T13:00:33;5.63;;;4.53;;
286;SDS011;127;48.770;9.212;2022-09-03T13:03:07;6.63;;;4.43;;
286;SDS011;127;48.770;9.212;2022-09-03T13:05:43;7.97;;;4.10;;
286;SDS011;127;48.770;9.212;2022-09-03T13:08:16;7.53;;;4.37;;
286;SDS011;127;48.770;9.212;2022-09-03T13:10:49;14.30;;;5.27;;
286;SDS011;127;48.770;9.212;2022-09-03T13:13:21;7.67;;;4.90;;
286;SDS011;127;48.770;9.212;2022-09-03T13:15:54;7.30;;;4.97;;
286;SDS011;127;48.770;9.212;2022-09-03T13:18:36;6.40;;;4.20;;
286;SDS011;127;48.770;9.212;2022-09-03T13:21:10;6.40;;;4.70;;
286;SDS011;127;48.770;9.212;2022-09-03T13:23:49;10.70;;;4.93;;
286;SDS011;127;48.770;9.212;2022-09-03T13:26:31;6.90;;;4.50;;
286;SDS011;127;48.770;9.212;2022-09-03T13:29:20;8.60;;;4.30;;
286;SDS011;127;48.770;9.212;2022-09-03T13:32:09;4.43;;;3.40;;
286;SDS011;127;48.770;9.212;2022-09-03T13:34:52;7.57;;;4.10;;
286;SDS011;127;48.770;9.212;2022-09-03T13:37:25;4.37;;;3.50;;
286;SDS011;127;48.770;9.212;2022-09-03T13:40:02;8.70;;;4.10;;
286;SDS011;127;48.770;9.212;2022-09-03T13:42:43;5.70;;;3.60;;
286;SDS011;127;48.770;9.212;2022-09-03T13:45:21;3.57;;;2.70;;
286;SDS011;127;48.770;9.212;2022-09-03T13:47:57;4.57;;;3.20;;
286;SDS011;127;48.770;9.212;2022-09-03T13:50:47;16.03;;;3.43;;
286;SDS011;127;48.770;9.212;2022-09-03T13:53:22;4.03;;;2.40;;
286;SDS011;127;48.770;9.212;2022-09-03T13:56:00;3.37;;;2.10;;
286;SDS011;127;48.770;9.212;2022-09-03T13:58:43;5.63;;;2.43;;
286;SDS011;127;48.770;9.212;2022-09-03T14:01:24;3.43;;;1.83;;
286;SDS011;127;48.770;9.212;2022-09-03T14:04:03;5.20;;;1.90;;
286;SDS011;127;48.770;9.212;2022-09-03T14:06:48;3.40;;;1.93;;
286;SDS011;127;48.770;9.212;2022-09-03T14:09:28;4.00;;;2.20;;
286;SDS011;127;48.770;9.212;2022-09-03T14:12:02;3.33;;;1.90;;
286;SDS011;127;48.770;9.212;2022-09-03T14:14:43;3.53;;;2.13;;
286;SDS011;127;48.770;9.212;2022-09-03T14:17:22;7.50;;;2.30;;
286;SDS011;127;48.770;9.212;2022-09-03T14:20:00;2.50;;;1.80;;
286;SDS011;127;48.770;9.212;2022-09-03T14:22:43;7.50;;;2.37;;
286;SDS011;127;48.770;9.212;2022-09-03T14:25:19;1.93;;;1.70;;
286;SDS011;127;48.770;9.212;2022-09-03T14:27:51;4.23;;;1.97;;
286;SDS011;127;48.770;9.212;2022-09-03T14:30:32;2.43;;;2.27;;
286;SDS011;127;48.770;9.212;2022-09-03T14:33:09;3.27;;;1.90;;
286;SDS011;127;48.770;9.212;2022-09-03T14:35:51;2.97;;;1.80;;
286;SDS011;127;48.770;9.212;2022-09-03T14:38:33;3.90;;;1.53;;
286;SDS011;127;48.770;9.212;2022-09-03T14:41:31;2.23;;;1.70;;
286;SDS011;127;48.770;9.212;2022-09-03T14:44:18;3.13;;;1.57;;
286;SDS011;127;48.770;9.212;2022-09-03T14:47:00;1.93;;;1.30;;
286;SDS011;127;48.770;9.212;2022-09-03T14:52:51;2.93;;;2.00;;
286;SDS011;127;48.770;9.212;2022-09-03T14:55:37;1.80;;;1.70;;
286;SDS011;127;48.770;9.212;2022-09-03T14:58:31;2.10;;;1.60;;
286;SDS011;127;48.770;9.212;2022-09-03T15:01:10;2.40;;;1.60;;
286;SDS011;127;48.770;9.212;2022-09-03T15:03:54;2.70;;;1.63;;
286;SDS011;127;48.770;9.212;2022-09-03T15:06:51;4.60;;;1.57;;
286;SDS011;127;48.770;9.212;2022-09-03T15:09:33;1.87;;;1.43;;
286;SDS011;127;48.770;9.212;2022-09-03T15:12:17;2.40;;;1.70;;
286;SDS011;127;48.770;9.212;2022-09-03T15:14:52;2.93;;;1.90;;
286;SDS011;127;48.770;9.212;2022-09-03T15:17:27;4.63;;;1.60;;
286;SDS011;127;48.770;9.212;2022-09-03T15:20:21;2.67;;;1.43;;
286;SDS011;127;48.770;9.212;2022-09-03T15:23:16;3.17;;;1.70;;
286;SDS011;127;48.770;9.212;2022-09-03T15:26:05;2.20;;;1.70;;
286;SDS011;127;48.770;9.212;2022-09-03T15:29:00;1.30;;;1.30;;
286;SDS011;127;48.770;9.212;2022-09-03T15:31:43;2.20;;;1.70;;
286;SDS011;127;48.770;9.212;2022-09-03T15:34:23;3.20;;;1.63;;
286;SDS011;127;48.770;9.212;2022-09-03T15:37:13;2.90;;;2.03;;
286;SDS011;127;48.770;9.212;2022-09-03T15:39:46;5.50;;;2.27;;
286;SDS011;127;48.770;9.212;2022-09-03T15:42:28;3.53;;;2.07;;
286;SDS011;127;48.770;9.212;2022-09-03T15:45:03;5.50;;;2.07;;
286;SDS011;127;48.770;9.212;2022-09-03T15:47:37;3.73;;;2.50;;
286;SDS011;127;48.770;9.212;2022-09-03T15:50:23;2.43;;;1.83;;
286;SDS011;127;48.770;9.212;2022-09-03T15:53:00;5.73;;;2.00;;
286;SDS011;127;48.770;9.212;2022-09-03T15:55:33;3.50;;;2.03;;
286;SDS011;127;48.770;9.212;2022-09-03T15:58:05;2.03;;;1.93;;
286;SDS011;127;48.770;9.212;2022-09-03T16:00:52;2.20;;;1.90;;
286;SDS011;127;48.770;9.212;2022-09-03T16:03:31;6.03;;;1.83;;
286;SDS011;127;48.770;9.212;2022-09-03T16:06:15;4.73;;;2.67;;
286;SDS011;127;48.770;9.212;2022-09-03T16:08:48;4.40;;;2.83;;
286;SDS011;127;48.770;9.212;2022-09-03T16:11:32;7.63;;;3.00;;
286;SDS011;127;48.770;9.212;2022-09-03T16:14:05;5.50;;;2.80;;
286;SDS011;127;48.770;9.212;2022-09-03T16:16:55;8.10;;;2.40;;
286;SDS011;127;48.770;9.212;2022-09-03T16:19:31;4.60;;;2.50;;
286;SDS011;127;48.770;9.212;2022-09-03T16:22:06;4.70;;;2.60;;
286;SDS011;127;48.770;9.212;2022-09-03T16:24:42;3.80;;;2.40;;
286;SDS011;127;48.770;9.212;2022-09-03T16:27:16;4.67;;;2.83;;
286;SDS011;127;48.770;9.212;2022-09-03T16:32:56;9.13;;;2.67;;
286;SDS011;127;48.770;9.212;2022-09-03T19:57:29;9.87;;;4.50;;
286;SDS011;127;48.770;9.212;2022-09-03T20:00:22;8.60;;;4.13;;
286;SDS011;127;48.770;9.212;2022-09-03T20:03:04;9.30;;;4.00;;
286;SDS011;127;48.770;9.212;2022-09-03T20:05:46;6.37;;;4.00;;
286;SDS011;127;48.770;9.212;2022-09-03T20:08:28;6.47;;;3.30;;
286;SDS011;127;48.770;9.212;2022-09-03T20:11:15;7.57;;;3.43;;
286;SDS011;127;48.770;9.212;2022-09-03T20:13:45;13.73;;;5.10;;
286;SDS011;127;48.770;9.212;2022-09-03T20:16:27;7.67;;;4.40;;
286;SDS011;127;48.770;9.212;2022-09-03T20:19:00;6.30;;;4.30;;
286;SDS011;127;48.770;9.212;2022-09-03T20:21:34;5.20;;;3.40;;
286;SDS011;127;48.770;9.212;2022-09-03T20:24:11;6.20;;;3.83;;
286;SDS011;127;48.770;9.212;2022-09-03T20:26:59;8.10;;;4.33;;
286;SDS011;127;48.770;9.212;2022-09-03T20:29:40;6.97;;;3.70;;
286;SDS011;127;48.770;9.212;2022-09-03T20:32:35;6.27;;;3.60;;
286;SDS011;127;48.770;9.212;2022-09-03T20:35:16;7.20;;;4.30;;